sensor_id;sensor_type;location;lat;lon;timestamp;P1;durP1;ratioP1;P2;durP2;ratioP2
3726;SDS011;1879;45.876;12.300;2023-01-31T00:01:37;61.80;;;41.97;;
3726;SDS011;1879;45.876;12.300;2023-01-31T00:04:07;53.53;;;39.67;;
3726;SDS011;1879;45.876;12.300;2023-01-31T00:06:37;57.17;;;40.00;;
3726;SDS011;1879;45.876;12.300;2023-01-31T00:09:06;57.67;;;42.87;;
3726;SDS011;1879;45.876;12.300;2023-01-31T00:11:35;56.27;;;42.10;;
3726;SDS011;1879;45.876;12.300;2023-01-31T00:14:03;63.23;;;43.87;;
3726;SDS011;1879;45.876;12.300;2023-01-31T00:16:30;60.00;;;45.53;;
3726;SDS011;1879;45.876;12.300;2023-01-31T00:18:57;55.93;;;41.20;;
3726;SDS011;1879;45.876;12.300;2023-01-31T00:21:27;58.43;;;42.80;;
3726;SDS011;1879;45.876;12.300;2023-01-31T00:23:55;59.47;;;42.67;;
3726;SDS011;1879;45.876;12.300;2023-01-31T00:26:23;61.83;;;41.47;;
3726;SDS011;1879;45.876;12.300;2023-01-31T00:28:52;58.03;;;41.50;;
3726;SDS011;1879;45.876;12.300;2023-01-31T00:31:22;54.17;;;43.00;;
3726;SDS011;1879;45.876;12.300;2023-01-31T00:33:50;60.03;;;43.63;;
3726;SDS011;1879;45.876;12.300;2023-01-31T00:36:19;56.03;;;41.60;;
3726;SDS011;1879;45.876;12.300;2023-01-31T00:38:48;58.70;;;44.40;;
3726;SDS011;1879;45.876;12.300;2023-01-31T00:41:16;60.67;;;44.40;;
3726;SDS011;1879;45.876;12.300;2023-01-31T00:43:43;58.60;;;41.83;;
3726;SDS011;1879;45.876;12.300;2023-01-31T00:46:10;61.50;;;45.43;;
3726;SDS011;1879;45.876;12.300;2023-01-31T00:48:37;60.70;;;44.57;;
3726;SDS011;1879;45.876;12.300;2023-01-31T00:51:05;64.50;;;45.13;;
3726;SDS011;1879;45.876;12.300;2023-01-31T00:53:32;57.23;;;39.80;;
3726;SDS011;1879;45.876;12.300;2023-01-31T00:56:03;61.20;;;43.23;;
3726;SDS011;1879;45.876;12.300;2023-01-31T00:58:31;62.47;;;44.70;;
3726;SDS011;1879;45.876;12.300;2023-01-31T01:01:04;64.90;;;46.17;;
3726;SDS011;1879;45.876;12.300;2023-01-31T01:03:32;66.60;;;47.00;;
3726;SDS011;1879;45.876;12.300;2023-01-31T01:05:59;66.10;;;49.10;;
3726;SDS011;1879;45.876;12.300;2023-01-31T01:08:27;77.73;;;51.60;;
3726;SDS011;1879;45.876;12.300;2023-01-31T01:10:54;68.00;;;46.30;;
3726;SDS011;1879;45.876;12.300;2023-01-31T01:13:22;75.17;;;49.40;;
3726;SDS011;1879;45.876;12.300;2023-01-31T01:15:49;67.63;;;49.27;;
3726;SDS011;1879;45.876;12.300;2023-01-31T01:18:17;66.50;;;47.17;;
3726;SDS011;1879;45.876;12.300;2023-01-31T01:20:46;62.77;;;47.33;;
3726;SDS011;1879;45.876;12.300;2023-01-31T01:23:14;72.27;;;47.60;;
3726;SDS011;1879;45.876;12.300;2023-01-31T01:25:42;71.73;;;48.20;;
3726;SDS011;1879;45.876;12.300;2023-01-31T01:28:09;69.13;;;50.10;;
3726;SDS011;1879;45.876;12.300;2023-01-31T01:30:38;62.50;;;46.93;;
3726;SDS011;1879;45.876;12.300;2023-01-31T01:33:05;60.10;;;47.80;;
3726;SDS011;1879;45.876;12.300;2023-01-31T01:35:32;64.37;;;47.33;;
3726;SDS011;1879;45.876;12.300;2023-01-31T01:37:59;64.10;;;44.70;;
3726;SDS011;1879;45.876;12.300;2023-01-31T01:40:32;57.20;;;43.60;;
3726;SDS011;1879;45.876;12.300;2023-01-31T01:43:00;56.93;;;44.83;;
3726;SDS011;1879;45.876;12.300;2023-01-31T01:45:29;61.40;;;45.20;;
3726;SDS011;1879;45.876;12.300;2023-01-31T01:47:58;56.50;;;43.27;;
3726;SDS011;1879;45.876;12.300;2023-01-31T01:50:29;62.13;;;43.73;;
3726;SDS011;1879;45.876;12.300;2023-01-31T01:52:59;61.93;;;44.23;;
3726;SDS011;1879;45.876;12.300;2023-01-31T01:55:30;60.70;;;42.13;;
3726;SDS011;1879;45.876;12.300;2023-01-31T01:58:01;56.90;;;41.90;;
3726;SDS011;1879;45.876;12.300;2023-01-31T02:00:32;57.27;;;41.30;;
3726;SDS011;1879;45.876;12.300;2023-01-31T02:03:03;57.70;;;43.33;;
3726;SDS011;1879;45.876;12.300;2023-01-31T02:05:33;56.60;;;42.17;;
3726;SDS011;1879;45.876;12.300;2023-01-31T02:08:03;60.83;;;42.30;;
3726;SDS011;1879;45.876;12.300;2023-01-31T02:10:31;49.53;;;39.97;;
3726;SDS011;1879;45.876;12.300;2023-01-31T02:13:03;53.70;;;40.27;;
3726;SDS011;1879;45.876;12.300;2023-01-31T02:15:30;56.03;;;41.40;;
3726;SDS011;1879;45.876;12.300;2023-01-31T02:17:58;58.20;;;41.63;;
3726;SDS011;1879;45.876;12.300;2023-01-31T02:20:31;56.90;;;39.50;;
3726;SDS011;1879;45.876;12.300;2023-01-31T02:23:40;55.30;;;42.43;;
3726;SDS011;1879;45.876;12.300;2023-01-31T02:26:40;55.30;;;41.33;;
3726;SDS011;1879;45.876;12.300;2023-01-31T02:29:33;56.40;;;42.33;;
3726;SDS011;1879;45.876;12.300;2023-01-31T02:32:20;52.10;;;39.13;;
3726;SDS011;1879;45.876;12.300;2023-01-31T02:35:12;52.27;;;41.93;;
3726;SDS011;1879;45.876;12.300;2023-01-31T02:37:50;58.23;;;41.20;;
3726;SDS011;1879;45.876;12.300;2023-01-31T02:40:26;59.80;;;41.23;;
3726;SDS011;1879;45.876;12.300;2023-01-31T02:43:03;53.00;;;41.20;;
3726;SDS011;1879;45.876;12.300;2023-01-31T02:45:38;57.13;;;41.53;;
3726;SDS011;1879;45.876;12.300;2023-01-31T02:48:16;61.00;;;41.73;;
3726;SDS011;1879;45.876;12.300;2023-01-31T02:50:54;50.00;;;40.70;;
3726;SDS011;1879;45.876;12.300;2023-01-31T02:53:26;54.47;;;40.90;;
3726;SDS011;1879;45.876;12.300;2023-01-31T02:55:59;61.13;;;42.90;;
3726;SDS011;1879;45.876;12.300;2023-01-31T02:58:43;58.47;;;43.23;;
3726;SDS011;1879;45.876;12.300;2023-01-31T03:01:16;55.93;;;40.80;;
3726;SDS011;1879;45.876;12.300;2023-01-31T03:03:53;55.33;;;38.30;;
3726;SDS011;1879;45.876;12.300;2023-01-31T03:12:28;55.50;;;42.23;;
3726;SDS011;1879;45.876;12.300;2023-01-31T03:15:06;54.50;;;40.57;;
3726;SDS011;1879;45.876;12.300;2023-01-31T03:17:49;52.07;;;39.57;;
3726;SDS011;1879;45.876;12.300;2023-01-31T03:20:25;55.60;;;40.13;;
3726;SDS011;1879;45.876;12.300;2023-01-31T03:22:55;52.80;;;40.37;;
3726;SDS011;1879;45.876;12.300;2023-01-31T03:25:27;57.73;;;38.30;;
3726;SDS011;1879;45.876;12.300;2023-01-31T03:27:59;46.70;;;36.80;;
3726;SDS011;1879;45.876;12.300;2023-01-31T03:30:31;52.00;;;38.00;;
3726;SDS011;1879;45.876;12.300;2023-01-31T03:33:04;55.53;;;40.40;;
3726;SDS011;1879;45.876;12.300;2023-01-31T03:35:37;51.87;;;39.33;;
3726;SDS011;1879;45.876;12.300;2023-01-31T03:38:13;55.03;;;39.13;;
3726;SDS011;1879;45.876;12.300;2023-01-31T03:40:45;57.67;;;41.37;;
3726;SDS011;1879;45.876;12.300;2023-01-31T03:43:19;53.07;;;38.20;;
3726;SDS011;1879;45.876;12.300;2023-01-31T03:45:52;52.20;;;39.83;;
3726;SDS011;1879;45.876;12.300;2023-01-31T03:48:23;52.80;;;41.13;;
3726;SDS011;1879;45.876;12.300;2023-01-31T03:50:56;55.60;;;40.27;;
3726;SDS011;1879;45.876;12.300;2023-01-31T03:53:26;52.83;;;37.40;;
3726;SDS011;1879;45.876;12.300;2023-01-31T03:55:58;51.97;;;40.90;;
3726;SDS011;1879;45.876;12.300;2023-01-31T03:58:29;49.47;;;36.73;;
3726;SDS011;1879;45.876;12.300;2023-01-31T04:01:00;49.93;;;36.13;;
3726;SDS011;1879;45.876;12.300;2023-01-31T04:03:29;51.87;;;37.73;;
3726;SDS011;1879;45.876;12.300;2023-01-31T04:06:03;52.10;;;37.00;;
3726;SDS011;1879;45.876;12.300;2023-01-31T04:08:31;54.70;;;37.57;;
3726;SDS011;1879;45.876;12.300;2023-01-31T04:10:59;54.30;;;37.37;;
3726;SDS011;1879;45.876;12.300;2023-01-31T04:13:29;47.57;;;35.67;;
3726;SDS011;1879;45.876;12.300;2023-01-31T04:15:56;48.53;;;34.83;;
3726;SDS011;1879;45.876;12.300;2023-01-31T04:18:23;51.03;;;36.30;;
3726;SDS011;1879;45.876;12.300;2023-01-31T04:20:50;48.93;;;36.47;;
3726;SDS011;1879;45.876;12.300;2023-01-31T04:23:19;41.90;;;34.43;;
3726;SDS011;1879;45.876;12.300;2023-01-31T04:25:46;42.50;;;32.10;;
3726;SDS011;1879;45.876;12.300;2023-01-31T04:28:13;43.40;;;32.50;;
3726;SDS011;1879;45.876;12.300;2023-01-31T04:30:39;47.17;;;34.33;;
3726;SDS011;1879;45.876;12.300;2023-01-31T04:33:06;49.47;;;36.43;;
3726;SDS011;1879;45.876;12.300;2023-01-31T04:35:33;52.23;;;36.30;;
3726;SDS011;1879;45.876;12.300;2023-01-31T04:38:00;46.17;;;36.20;;
3726;SDS011;1879;45.876;12.300;2023-01-31T04:40:30;44.73;;;32.77;;
3726;SDS011;1879;45.876;12.300;2023-01-31T04:42:58;42.27;;;34.03;;
3726;SDS011;1879;45.876;12.300;2023-01-31T04:45:25;52.70;;;36.10;;
3726;SDS011;1879;45.876;12.300;2023-01-31T04:47:53;47.37;;;36.17;;
3726;SDS011;1879;45.876;12.300;2023-01-31T04:50:20;52.90;;;34.53;;
3726;SDS011;1879;45.876;12.300;2023-01-31T04:52:48;46.43;;;34.17;;
3726;SDS011;1879;45.876;12.300;2023-01-31T04:55:15;47.70;;;33.00;;
3726;SDS011;1879;45.876;12.300;2023-01-31T04:57:44;47.27;;;32.90;;
3726;SDS011;1879;45.876;12.300;2023-01-31T05:00:11;43.63;;;33.00;;
3726;SDS011;1879;45.876;12.300;2023-01-31T05:02:38;45.57;;;33.77;;
3726;SDS011;1879;45.876;12.300;2023-01-31T05:05:06;44.40;;;31.93;;
3726;SDS011;1879;45.876;12.300;2023-01-31T05:07:34;43.37;;;31.33;;
3726;SDS011;1879;45.876;12.300;2023-01-31T05:10:01;43.03;;;32.07;;
3726;SDS011;1879;45.876;12.300;2023-01-31T05:12:28;37.93;;;28.83;;
3726;SDS011;1879;45.876;12.300;2023-01-31T05:14:56;39.10;;;29.10;;
3726;SDS011;1879;45.876;12.300;2023-01-31T05:17:23;41.53;;;29.03;;
3726;SDS011;1879;45.876;12.300;2023-01-31T05:19:53;43.47;;;28.93;;
3726;SDS011;1879;45.876;12.300;2023-01-31T05:22:20;39.67;;;28.57;;
3726;SDS011;1879;45.876;12.300;2023-01-31T05:24:47;40.50;;;29.20;;
3726;SDS011;1879;45.876;12.300;2023-01-31T05:27:15;44.43;;;30.00;;
3726;SDS011;1879;45.876;12.300;2023-01-31T05:29:43;41.77;;;29.30;;
3726;SDS011;1879;45.876;12.300;2023-01-31T05:32:11;39.07;;;29.93;;
3726;SDS011;1879;45.876;12.300;2023-01-31T05:34:40;38.60;;;29.50;;
3726;SDS011;1879;45.876;12.300;2023-01-31T05:37:07;39.77;;;28.47;;
3726;SDS011;1879;45.876;12.300;2023-01-31T05:39:34;42.30;;;29.20;;
3726;SDS011;1879;45.876;12.300;2023-01-31T05:42:01;47.23;;;29.87;;
3726;SDS011;1879;45.876;12.300;2023-01-31T05:44:28;43.40;;;28.80;;
3726;SDS011;1879;45.876;12.300;2023-01-31T05:46:56;40.30;;;29.03;;
3726;SDS011;1879;45.876;12.300;2023-01-31T05:49:26;43.50;;;30.23;;
3726;SDS011;1879;45.876;12.300;2023-01-31T05:51:57;45.17;;;32.07;;
3726;SDS011;1879;45.876;12.300;2023-01-31T05:54:24;45.67;;;32.13;;
3726;SDS011;1879;45.876;12.300;2023-01-31T05:56:51;40.30;;;28.57;;
3726;SDS011;1879;45.876;12.300;2023-01-31T05:59:18;42.43;;;29.80;;
3726;SDS011;1879;45.876;12.300;2023-01-31T06:01:45;42.13;;;31.30;;
3726;SDS011;1879;45.876;12.300;2023-01-31T06:04:12;43.23;;;31.80;;
3726;SDS011;1879;45.876;12.300;2023-01-31T06:06:40;43.33;;;32.27;;
3726;SDS011;1879;45.876;12.300;2023-01-31T06:09:08;42.57;;;30.93;;
3726;SDS011;1879;45.876;12.300;2023-01-31T06:11:35;41.90;;;30.43;;
3726;SDS011;1879;45.876;12.300;2023-01-31T06:14:02;46.20;;;33.87;;
3726;SDS011;1879;45.876;12.300;2023-01-31T06:16:30;48.07;;;34.10;;
3726;SDS011;1879;45.876;12.300;2023-01-31T06:18:57;46.03;;;35.33;;
3726;SDS011;1879;45.876;12.300;2023-01-31T06:21:24;48.67;;;35.37;;
3726;SDS011;1879;45.876;12.300;2023-01-31T06:23:53;54.90;;;39.63;;
3726;SDS011;1879;45.876;12.300;2023-01-31T06:26:20;47.30;;;36.37;;
3726;SDS011;1879;45.876;12.300;2023-01-31T06:28:47;49.23;;;35.80;;
3726;SDS011;1879;45.876;12.300;2023-01-31T06:31:14;51.60;;;37.50;;
3726;SDS011;1879;45.876;12.300;2023-01-31T06:33:41;51.07;;;38.83;;
3726;SDS011;1879;45.876;12.300;2023-01-31T06:36:08;51.77;;;37.03;;
3726;SDS011;1879;45.876;12.300;2023-01-31T06:38:35;53.60;;;36.57;;
3726;SDS011;1879;45.876;12.300;2023-01-31T06:41:04;52.17;;;39.17;;
3726;SDS011;1879;45.876;12.300;2023-01-31T06:43:32;56.03;;;38.93;;
3726;SDS011;1879;45.876;12.300;2023-01-31T06:45:59;42.67;;;34.73;;
3726;SDS011;1879;45.876;12.300;2023-01-31T06:48:26;51.87;;;39.53;;
3726;SDS011;1879;45.876;12.300;2023-01-31T06:50:52;52.80;;;38.20;;
3726;SDS011;1879;45.876;12.300;2023-01-31T06:53:20;53.53;;;39.93;;
3726;SDS011;1879;45.876;12.300;2023-01-31T06:55:47;48.27;;;36.50;;
3726;SDS011;1879;45.876;12.300;2023-01-31T06:58:15;43.07;;;32.90;;
3726;SDS011;1879;45.876;12.300;2023-01-31T07:00:42;47.60;;;34.70;;
3726;SDS011;1879;45.876;12.300;2023-01-31T07:03:12;32.60;;;23.90;;
3726;SDS011;1879;45.876;12.300;2023-01-31T07:05:39;33.73;;;27.13;;
3726;SDS011;1879;45.876;12.300;2023-01-31T07:08:05;25.90;;;19.73;;
3726;SDS011;1879;45.876;12.300;2023-01-31T07:10:34;26.23;;;18.90;;
3726;SDS011;1879;45.876;12.300;2023-01-31T07:13:00;25.83;;;21.20;;
3726;SDS011;1879;45.876;12.300;2023-01-31T07:15:29;25.07;;;19.23;;
3726;SDS011;1879;45.876;12.300;2023-01-31T07:17:56;32.27;;;20.67;;
3726;SDS011;1879;45.876;12.300;2023-01-31T07:20:24;24.60;;;21.57;;
3726;SDS011;1879;45.876;12.300;2023-01-31T07:22:54;32.40;;;23.83;;
3726;SDS011;1879;45.876;12.300;2023-01-31T07:25:21;36.97;;;24.23;;
3726;SDS011;1879;45.876;12.300;2023-01-31T07:27:47;32.20;;;24.57;;
3726;SDS011;1879;45.876;12.300;2023-01-31T07:30:15;40.07;;;29.57;;
3726;SDS011;1879;45.876;12.300;2023-01-31T07:32:43;43.90;;;32.80;;
3726;SDS011;1879;45.876;12.300;2023-01-31T07:35:10;47.63;;;34.13;;
3726;SDS011;1879;45.876;12.300;2023-01-31T07:37:37;49.63;;;36.80;;
3726;SDS011;1879;45.876;12.300;2023-01-31T07:40:05;59.93;;;41.03;;
3726;SDS011;1879;45.876;12.300;2023-01-31T07:42:33;54.90;;;37.93;;
3726;SDS011;1879;45.876;12.300;2023-01-31T07:45:00;56.97;;;41.00;;
3726;SDS011;1879;45.876;12.300;2023-01-31T07:47:27;57.87;;;40.50;;
3726;SDS011;1879;45.876;12.300;2023-01-31T07:49:55;61.67;;;42.83;;
3726;SDS011;1879;45.876;12.300;2023-01-31T07:52:22;63.70;;;43.47;;
3726;SDS011;1879;45.876;12.300;2023-01-31T07:54:49;55.83;;;42.80;;
3726;SDS011;1879;45.876;12.300;2023-01-31T07:57:16;60.00;;;43.80;;
3726;SDS011;1879;45.876;12.300;2023-01-31T07:59:43;75.20;;;47.50;;
3726;SDS011;1879;45.876;12.300;2023-01-31T08:02:10;61.27;;;45.70;;
3726;SDS011;1879;45.876;12.300;2023-01-31T08:04:56;61.20;;;44.90;;
3726;SDS011;1879;45.876;12.300;2023-01-31T08:07:23;69.83;;;49.07;;
3726;SDS011;1879;45.876;12.300;2023-01-31T08:09:50;67.23;;;49.53;;
3726;SDS011;1879;45.876;12.300;2023-01-31T08:12:17;61.53;;;45.90;;
3726;SDS011;1879;45.876;12.300;2023-01-31T08:14:44;65.67;;;47.00;;
3726;SDS011;1879;45.876;12.300;2023-01-31T08:17:11;68.57;;;47.20;;
3726;SDS011;1879;45.876;12.300;2023-01-31T08:19:38;74.13;;;48.50;;
3726;SDS011;1879;45.876;12.300;2023-01-31T08:22:07;63.77;;;46.80;;
3726;SDS011;1879;45.876;12.300;2023-01-31T08:24:34;68.17;;;47.90;;
3726;SDS011;1879;45.876;12.300;2023-01-31T08:27:02;69.00;;;49.20;;
3726;SDS011;1879;45.876;12.300;2023-01-31T08:29:29;68.47;;;49.80;;
3726;SDS011;1879;45.876;12.300;2023-01-31T08:31:55;67.63;;;47.47;;
3726;SDS011;1879;45.876;12.300;2023-01-31T08:34:22;68.77;;;48.60;;
3726;SDS011;1879;45.876;12.300;2023-01-31T08:36:51;62.73;;;49.37;;
3726;SDS011;1879;45.876;12.300;2023-01-31T08:39:20;69.67;;;48.50;;
3726;SDS011;1879;45.876;12.300;2023-01-31T08:41:47;68.10;;;47.13;;
3726;SDS011;1879;45.876;12.300;2023-01-31T08:44:14;69.23;;;48.93;;
3726;SDS011;1879;45.876;12.300;2023-01-31T08:46:41;66.20;;;48.20;;
3726;SDS011;1879;45.876;12.300;2023-01-31T08:49:09;60.37;;;46.23;;
3726;SDS011;1879;45.876;12.300;2023-01-31T08:51:36;69.50;;;48.10;;
3726;SDS011;1879;45.876;12.300;2023-01-31T08:54:03;72.90;;;53.80;;
3726;SDS011;1879;45.876;12.300;2023-01-31T08:56:32;70.73;;;49.63;;
3726;SDS011;1879;45.876;12.300;2023-01-31T08:58:59;67.70;;;49.00;;
3726;SDS011;1879;45.876;12.300;2023-01-31T09:01:26;67.87;;;49.43;;
3726;SDS011;1879;45.876;12.300;2023-01-31T09:03:53;65.40;;;48.77;;
3726;SDS011;1879;45.876;12.300;2023-01-31T09:06:23;68.17;;;48.67;;
3726;SDS011;1879;45.876;12.300;2023-01-31T09:08:52;60.73;;;46.30;;
3726;SDS011;1879;45.876;12.300;2023-01-31T09:11:20;62.50;;;45.37;;
3726;SDS011;1879;45.876;12.300;2023-01-31T09:13:48;64.57;;;45.63;;
3726;SDS011;1879;45.876;12.300;2023-01-31T09:16:16;69.40;;;48.83;;
3726;SDS011;1879;45.876;12.300;2023-01-31T09:18:43;62.33;;;44.57;;
3726;SDS011;1879;45.876;12.300;2023-01-31T09:21:11;62.23;;;43.13;;
3726;SDS011;1879;45.876;12.300;2023-01-31T09:23:42;65.47;;;45.33;;
3726;SDS011;1879;45.876;12.300;2023-01-31T09:26:09;62.37;;;44.40;;
3726;SDS011;1879;45.876;12.300;2023-01-31T09:28:37;64.97;;;46.07;;
3726;SDS011;1879;45.876;12.300;2023-01-31T09:31:08;66.63;;;45.80;;
3726;SDS011;1879;45.876;12.300;2023-01-31T09:33:36;66.80;;;48.07;;
3726;SDS011;1879;45.876;12.300;2023-01-31T09:36:04;70.53;;;47.90;;
3726;SDS011;1879;45.876;12.300;2023-01-31T09:38:33;68.13;;;47.33;;
3726;SDS011;1879;45.876;12.300;2023-01-31T09:41:02;67.57;;;50.20;;
3726;SDS011;1879;45.876;12.300;2023-01-31T09:43:31;67.43;;;47.43;;
3726;SDS011;1879;45.876;12.300;2023-01-31T09:46:03;65.03;;;46.23;;
3726;SDS011;1879;45.876;12.300;2023-01-31T09:48:36;67.13;;;47.63;;
3726;SDS011;1879;45.876;12.300;2023-01-31T09:51:08;62.27;;;46.87;;
3726;SDS011;1879;45.876;12.300;2023-01-31T09:53:37;61.70;;;46.70;;
3726;SDS011;1879;45.876;12.300;2023-01-31T09:56:12;73.63;;;48.87;;
3726;SDS011;1879;45.876;12.300;2023-01-31T09:58:48;73.40;;;49.20;;
3726;SDS011;1879;45.876;12.300;2023-01-31T10:01:22;68.07;;;49.20;;
3726;SDS011;1879;45.876;12.300;2023-01-31T10:03:58;62.47;;;45.77;;
3726;SDS011;1879;45.876;12.300;2023-01-31T10:06:35;62.77;;;47.30;;
3726;SDS011;1879;45.876;12.300;2023-01-31T10:09:10;68.90;;;48.43;;
3726;SDS011;1879;45.876;12.300;2023-01-31T10:11:43;66.93;;;47.90;;
3726;SDS011;1879;45.876;12.300;2023-01-31T10:14:18;71.43;;;49.97;;
3726;SDS011;1879;45.876;12.300;2023-01-31T10:16:59;69.30;;;46.30;;
3726;SDS011;1879;45.876;12.300;2023-01-31T10:19:35;69.83;;;45.10;;
3726;SDS011;1879;45.876;12.300;2023-01-31T10:22:09;71.47;;;49.30;;
3726;SDS011;1879;45.876;12.300;2023-01-31T10:24:42;66.27;;;49.50;;
3726;SDS011;1879;45.876;12.300;2023-01-31T10:27:13;65.37;;;49.43;;
3726;SDS011;1879;45.876;12.300;2023-01-31T10:29:46;70.57;;;48.23;;
3726;SDS011;1879;45.876;12.300;2023-01-31T10:32:18;70.73;;;47.90;;
3726;SDS011;1879;45.876;12.300;2023-01-31T10:34:54;67.00;;;49.07;;
3726;SDS011;1879;45.876;12.300;2023-01-31T10:37:26;67.77;;;46.67;;
3726;SDS011;1879;45.876;12.300;2023-01-31T10:39:58;63.70;;;44.63;;
3726;SDS011;1879;45.876;12.300;2023-01-31T10:42:30;64.73;;;45.60;;
3726;SDS011;1879;45.876;12.300;2023-01-31T10:45:00;67.73;;;46.70;;
3726;SDS011;1879;45.876;12.300;2023-01-31T10:47:32;66.50;;;46.23;;
3726;SDS011;1879;45.876;12.300;2023-01-31T10:50:04;65.53;;;48.33;;
3726;SDS011;1879;45.876;12.300;2023-01-31T10:52:43;68.13;;;47.50;;
3726;SDS011;1879;45.876;12.300;2023-01-31T10:55:25;66.97;;;48.50;;
3726;SDS011;1879;45.876;12.300;2023-01-31T10:58:09;67.37;;;47.30;;
3726;SDS011;1879;45.876;12.300;2023-01-31T11:00:39;68.43;;;51.20;;
3726;SDS011;1879;45.876;12.300;2023-01-31T11:03:08;74.13;;;51.70;;
3726;SDS011;1879;45.876;12.300;2023-01-31T11:05:39;71.63;;;50.63;;
3726;SDS011;1879;45.876;12.300;2023-01-31T11:08:18;72.30;;;50.30;;
3726;SDS011;1879;45.876;12.300;2023-01-31T11:10:52;71.53;;;50.00;;
3726;SDS011;1879;45.876;12.300;2023-01-31T11:13:20;70.70;;;52.00;;
3726;SDS011;1879;45.876;12.300;2023-01-31T11:15:47;65.93;;;50.17;;
3726;SDS011;1879;45.876;12.300;2023-01-31T11:18:23;73.17;;;50.90;;
3726;SDS011;1879;45.876;12.300;2023-01-31T11:20:54;74.00;;;51.70;;
3726;SDS011;1879;45.876;12.300;2023-01-31T11:23:24;70.77;;;48.20;;
3726;SDS011;1879;45.876;12.300;2023-01-31T11:25:53;67.20;;;49.30;;
3726;SDS011;1879;45.876;12.300;2023-01-31T11:28:21;65.97;;;47.50;;
3726;SDS011;1879;45.876;12.300;2023-01-31T11:30:53;64.53;;;46.87;;
3726;SDS011;1879;45.876;12.300;2023-01-31T11:33:37;69.37;;;49.60;;
3726;SDS011;1879;45.876;12.300;2023-01-31T11:36:12;65.20;;;48.67;;
3726;SDS011;1879;45.876;12.300;2023-01-31T11:38:40;62.83;;;48.70;;
3726;SDS011;1879;45.876;12.300;2023-01-31T11:41:27;63.03;;;49.90;;
3726;SDS011;1879;45.876;12.300;2023-01-31T11:44:07;59.87;;;44.13;;
3726;SDS011;1879;45.876;12.300;2023-01-31T11:46:43;56.70;;;45.47;;
3726;SDS011;1879;45.876;12.300;2023-01-31T11:49:18;53.83;;;45.27;;
3726;SDS011;1879;45.876;12.300;2023-01-31T11:51:50;55.57;;;44.20;;
3726;SDS011;1879;45.876;12.300;2023-01-31T11:54:20;54.03;;;43.60;;
3726;SDS011;1879;45.876;12.300;2023-01-31T11:56:50;52.23;;;43.67;;
3726;SDS011;1879;45.876;12.300;2023-01-31T11:59:18;52.20;;;43.60;;
3726;SDS011;1879;45.876;12.300;2023-01-31T12:01:48;52.67;;;46.00;;
3726;SDS011;1879;45.876;12.300;2023-01-31T12:04:19;54.57;;;46.40;;
3726;SDS011;1879;45.876;12.300;2023-01-31T12:07:03;51.73;;;43.87;;
3726;SDS011;1879;45.876;12.300;2023-01-31T12:09:40;49.43;;;42.90;;
3726;SDS011;1879;45.876;12.300;2023-01-31T12:12:20;49.77;;;43.87;;
3726;SDS011;1879;45.876;12.300;2023-01-31T12:14:49;49.17;;;43.87;;
3726;SDS011;1879;45.876;12.300;2023-01-31T12:17:16;49.70;;;42.43;;
3726;SDS011;1879;45.876;12.300;2023-01-31T12:19:48;52.93;;;44.97;;
3726;SDS011;1879;45.876;12.300;2023-01-31T12:22:30;51.23;;;45.50;;
3726;SDS011;1879;45.876;12.300;2023-01-31T12:25:03;50.93;;;45.80;;
3726;SDS011;1879;45.876;12.300;2023-01-31T12:27:43;52.27;;;46.63;;
3726;SDS011;1879;45.876;12.300;2023-01-31T12:30:24;49.93;;;44.30;;
3726;SDS011;1879;45.876;12.300;2023-01-31T12:33:03;49.87;;;44.53;;
3726;SDS011;1879;45.876;12.300;2023-01-31T12:35:47;49.80;;;44.53;;
3726;SDS011;1879;45.876;12.300;2023-01-31T12:38:31;47.87;;;42.77;;
3726;SDS011;1879;45.876;12.300;2023-01-31T12:41:03;47.00;;;42.30;;
3726;SDS011;1879;45.876;12.300;2023-01-31T12:43:48;47.40;;;42.43;;
3726;SDS011;1879;45.876;12.300;2023-01-31T12:46:24;46.37;;;41.47;;
3726;SDS011;1879;45.876;12.300;2023-01-31T12:49:01;45.23;;;40.67;;
3726;SDS011;1879;45.876;12.300;2023-01-31T12:51:41;47.20;;;42.40;;
3726;SDS011;1879;45.876;12.300;2023-01-31T12:54:19;47.70;;;43.10;;
3726;SDS011;1879;45.876;12.300;2023-01-31T12:56:57;43.00;;;38.60;;
3726;SDS011;1879;45.876;12.300;2023-01-31T12:59:42;43.57;;;39.17;;
3726;SDS011;1879;45.876;12.300;2023-01-31T13:02:20;43.97;;;39.33;;
3726;SDS011;1879;45.876;12.300;2023-01-31T13:05:07;45.87;;;41.07;;
3726;SDS011;1879;45.876;12.300;2023-01-31T13:07:44;45.33;;;40.67;;
3726;SDS011;1879;45.876;12.300;2023-01-31T13:10:19;45.63;;;41.00;;
3726;SDS011;1879;45.876;12.300;2023-01-31T13:12:55;45.47;;;40.47;;
3726;SDS011;1879;45.876;12.300;2023-01-31T13:15:26;45.50;;;40.90;;
3726;SDS011;1879;45.876;12.300;2023-01-31T13:17:59;45.17;;;40.73;;
3726;SDS011;1879;45.876;12.300;2023-01-31T13:20:30;43.07;;;38.37;;
3726;SDS011;1879;45.876;12.300;2023-01-31T13:23:02;43.67;;;39.37;;
3726;SDS011;1879;45.876;12.300;2023-01-31T13:25:38;41.40;;;37.20;;
3726;SDS011;1879;45.876;12.300;2023-01-31T13:28:11;41.20;;;36.97;;
3726;SDS011;1879;45.876;12.300;2023-01-31T13:30:43;40.70;;;36.60;;
3726;SDS011;1879;45.876;12.300;2023-01-31T13:36:10;43.23;;;38.77;;
3726;SDS011;1879;45.876;12.300;2023-01-31T13:38:45;40.97;;;36.70;;
3726;SDS011;1879;45.876;12.300;2023-01-31T13:41:18;40.57;;;36.40;;
3726;SDS011;1879;45.876;12.300;2023-01-31T13:43:51;41.27;;;36.80;;
3726;SDS011;1879;45.876;12.300;2023-01-31T13:46:19;39.00;;;34.97;;
3726;SDS011;1879;45.876;12.300;2023-01-31T13:48:50;40.47;;;36.27;;
3726;SDS011;1879;45.876;12.300;2023-01-31T13:51:22;42.07;;;37.53;;
3726;SDS011;1879;45.876;12.300;2023-01-31T13:53:54;41.37;;;36.97;;
3726;SDS011;1879;45.876;12.300;2023-01-31T13:56:27;39.00;;;35.00;;
3726;SDS011;1879;45.876;12.300;2023-01-31T13:58:57;41.73;;;37.33;;
3726;SDS011;1879;45.876;12.300;2023-01-31T14:01:26;37.83;;;33.83;;
3726;SDS011;1879;45.876;12.300;2023-01-31T14:09:45;42.13;;;37.90;;
3726;SDS011;1879;45.876;12.300;2023-01-31T14:15:51;46.47;;;41.27;;
3726;SDS011;1879;45.876;12.300;2023-01-31T14:18:35;45.90;;;41.03;;
3726;SDS011;1879;45.876;12.300;2023-01-31T14:27:44;53.10;;;43.50;;
3726;SDS011;1879;45.876;12.300;2023-01-31T14:30:28;51.50;;;42.03;;
3726;SDS011;1879;45.876;12.300;2023-01-31T14:33:14;50.77;;;45.30;;
3726;SDS011;1879;45.876;12.300;2023-01-31T14:35:48;51.73;;;44.73;;
3726;SDS011;1879;45.876;12.300;2023-01-31T14:38:26;52.77;;;43.40;;
3726;SDS011;1879;45.876;12.300;2023-01-31T14:41:06;49.00;;;42.60;;
3726;SDS011;1879;45.876;12.300;2023-01-31T14:43:44;49.73;;;43.50;;
3726;SDS011;1879;45.876;12.300;2023-01-31T14:46:30;50.47;;;44.43;;
3726;SDS011;1879;45.876;12.300;2023-01-31T14:52:21;46.93;;;41.60;;
3726;SDS011;1879;45.876;12.300;2023-01-31T14:55:07;54.67;;;43.10;;
3726;SDS011;1879;45.876;12.300;2023-01-31T14:57:51;51.60;;;42.90;;
3726;SDS011;1879;45.876;12.300;2023-01-31T15:00:22;57.43;;;45.77;;
3726;SDS011;1879;45.876;12.300;2023-01-31T15:02:54;57.77;;;46.90;;
3726;SDS011;1879;45.876;12.300;2023-01-31T15:05:38;51.43;;;45.83;;
3726;SDS011;1879;45.876;12.300;2023-01-31T15:10:59;52.03;;;43.40;;
3726;SDS011;1879;45.876;12.300;2023-01-31T15:13:35;58.73;;;47.40;;
3726;SDS011;1879;45.876;12.300;2023-01-31T15:16:09;48.67;;;42.20;;
3726;SDS011;1879;45.876;12.300;2023-01-31T15:18:44;54.27;;;46.67;;
3726;SDS011;1879;45.876;12.300;2023-01-31T15:21:18;49.93;;;44.13;;
3726;SDS011;1879;45.876;12.300;2023-01-31T15:23:50;58.60;;;48.30;;
3726;SDS011;1879;45.876;12.300;2023-01-31T15:26:19;57.87;;;47.40;;
3726;SDS011;1879;45.876;12.300;2023-01-31T15:28:48;60.57;;;47.10;;